sensor_id;sensor_type;location;lat;lon;timestamp;P1;durP1;ratioP1;P2;durP2;ratioP2
12088;SDS011;6107;49.078;8.578;2024-03-08T00:00:50;38.60;;;17.92;;
12088;SDS011;6107;49.078;8.578;2024-03-08T00:03:16;36.35;;;17.40;;
12088;SDS011;6107;49.078;8.578;2024-03-08T00:05:42;36.50;;;18.15;;
12088;SDS011;6107;49.078;8.578;2024-03-08T00:08:07;36.78;;;16.70;;
12088;SDS011;6107;49.078;8.578;2024-03-08T00:10:34;43.00;;;17.33;;
12088;SDS011;6107;49.078;8.578;2024-03-08T00:13:00;43.47;;;17.92;;
12088;SDS011;6107;49.078;8.578;2024-03-08T00:15:29;39.10;;;17.15;;
12088;SDS011;6107;49.078;8.578;2024-03-08T00:17:54;42.25;;;18.60;;
12088;SDS011;6107;49.078;8.578;2024-03-08T00:20:20;36.90;;;17.17;;
12088;SDS011;6107;49.078;8.578;2024-03-08T00:22:46;34.30;;;16.33;;
12088;SDS011;6107;49.078;8.578;2024-03-08T00:25:12;39.10;;;17.40;;
12088;SDS011;6107;49.078;8.578;2024-03-08T00:27:37;35.78;;;16.45;;
12088;SDS011;6107;49.078;8.578;2024-03-08T00:30:03;43.40;;;18.05;;
12088;SDS011;6107;49.078;8.578;2024-03-08T00:32:30;36.38;;;17.80;;
12088;SDS011;6107;49.078;8.578;2024-03-08T00:34:56;33.67;;;15.85;;
12088;SDS011;6107;49.078;8.578;2024-03-08T00:37:22;37.92;;;15.27;;
12088;SDS011;6107;49.078;8.578;2024-03-08T00:39:51;36.92;;;16.33;;
12088;SDS011;6107;49.078;8.578;2024-03-08T00:42:17;37.25;;;17.13;;
12088;SDS011;6107;49.078;8.578;2024-03-08T00:44:43;38.70;;;17.27;;
12088;SDS011;6107;49.078;8.578;2024-03-08T00:47:09;35.85;;;16.63;;
12088;SDS011;6107;49.078;8.578;2024-03-08T00:49:35;39.85;;;17.00;;
12088;SDS011;6107;49.078;8.578;2024-03-08T00:52:03;40.08;;;17.33;;
12088;SDS011;6107;49.078;8.578;2024-03-08T00:54:31;42.13;;;16.48;;
12088;SDS011;6107;49.078;8.578;2024-03-08T00:56:57;37.65;;;16.67;;
12088;SDS011;6107;49.078;8.578;2024-03-08T00:59:22;36.15;;;16.35;;
12088;SDS011;6107;49.078;8.578;2024-03-08T01:01:48;41.65;;;16.13;;
12088;SDS011;6107;49.078;8.578;2024-03-08T01:04:13;32.70;;;16.75;;
12088;SDS011;6107;49.078;8.578;2024-03-08T01:06:39;40.40;;;17.60;;
12088;SDS011;6107;49.078;8.578;2024-03-08T01:09:04;35.40;;;15.65;;
12088;SDS011;6107;49.078;8.578;2024-03-08T01:11:32;42.00;;;18.25;;
12088;SDS011;6107;49.078;8.578;2024-03-08T01:13:59;36.50;;;16.13;;
12088;SDS011;6107;49.078;8.578;2024-03-08T01:16:24;35.65;;;16.58;;
12088;SDS011;6107;49.078;8.578;2024-03-08T01:18:50;34.53;;;15.35;;
12088;SDS011;6107;49.078;8.578;2024-03-08T01:21:15;36.20;;;15.98;;
12088;SDS011;6107;49.078;8.578;2024-03-08T01:23:41;47.97;;;20.83;;
12088;SDS011;6107;49.078;8.578;2024-03-08T01:26:07;41.25;;;17.65;;
12088;SDS011;6107;49.078;8.578;2024-03-08T01:28:32;37.40;;;15.80;;
12088;SDS011;6107;49.078;8.578;2024-03-08T01:30:59;38.72;;;18.13;;
12088;SDS011;6107;49.078;8.578;2024-03-08T01:33:25;42.85;;;17.75;;
12088;SDS011;6107;49.078;8.578;2024-03-08T01:35:55;37.08;;;16.50;;
12088;SDS011;6107;49.078;8.578;2024-03-08T01:38:22;35.40;;;15.75;;
12088;SDS011;6107;49.078;8.578;2024-03-08T01:40:47;45.05;;;17.75;;
12088;SDS011;6107;49.078;8.578;2024-03-08T01:45:46;40.47;;;16.45;;
12088;SDS011;6107;49.078;8.578;2024-03-08T01:48:12;42.95;;;17.75;;
12088;SDS011;6107;49.078;8.578;2024-03-08T01:50:39;45.72;;;17.92;;
12088;SDS011;6107;49.078;8.578;2024-03-08T01:53:06;39.42;;;17.25;;
12088;SDS011;6107;49.078;8.578;2024-03-08T01:55:35;38.95;;;16.63;;
12088;SDS011;6107;49.078;8.578;2024-03-08T01:58:01;47.80;;;16.83;;
12088;SDS011;6107;49.078;8.578;2024-03-08T02:00:28;46.22;;;18.75;;
12088;SDS011;6107;49.078;8.578;2024-03-08T02:02:55;50.00;;;19.85;;
12088;SDS011;6107;49.078;8.578;2024-03-08T02:05:22;44.38;;;18.45;;
12088;SDS011;6107;49.078;8.578;2024-03-08T02:07:48;47.35;;;18.30;;
12088;SDS011;6107;49.078;8.578;2024-03-08T02:10:14;51.17;;;18.63;;
12088;SDS011;6107;49.078;8.578;2024-03-08T02:12:40;66.28;;;19.95;;
12088;SDS011;6107;49.078;8.578;2024-03-08T02:15:06;46.55;;;18.48;;
12088;SDS011;6107;49.078;8.578;2024-03-08T02:17:32;40.42;;;16.35;;
12088;SDS011;6107;49.078;8.578;2024-03-08T02:20:02;48.58;;;18.55;;
12088;SDS011;6107;49.078;8.578;2024-03-08T02:22:29;39.13;;;17.42;;
12088;SDS011;6107;49.078;8.578;2024-03-08T02:24:56;41.35;;;17.60;;
12088;SDS011;6107;49.078;8.578;2024-03-08T02:27:27;37.28;;;16.08;;
12088;SDS011;6107;49.078;8.578;2024-03-08T02:29:55;52.10;;;20.42;;
12088;SDS011;6107;49.078;8.578;2024-03-08T02:32:24;49.47;;;18.52;;
12088;SDS011;6107;49.078;8.578;2024-03-08T02:34:50;51.47;;;19.80;;
12088;SDS011;6107;49.078;8.578;2024-03-08T02:37:16;47.08;;;17.55;;
12088;SDS011;6107;49.078;8.578;2024-03-08T02:39:42;52.17;;;18.45;;
12088;SDS011;6107;49.078;8.578;2024-03-08T02:42:08;48.55;;;18.23;;
12088;SDS011;6107;49.078;8.578;2024-03-08T02:44:34;55.70;;;19.13;;
12088;SDS011;6107;49.078;8.578;2024-03-08T02:46:59;49.90;;;18.40;;
12088;SDS011;6107;49.078;8.578;2024-03-08T02:49:25;47.00;;;18.17;;
12088;SDS011;6107;49.078;8.578;2024-03-08T02:51:52;44.08;;;17.88;;
12088;SDS011;6107;49.078;8.578;2024-03-08T02:54:18;62.60;;;22.02;;
12088;SDS011;6107;49.078;8.578;2024-03-08T02:56:44;48.22;;;19.45;;
12088;SDS011;6107;49.078;8.578;2024-03-08T02:59:11;40.95;;;16.52;;
12088;SDS011;6107;49.078;8.578;2024-03-08T03:01:37;54.20;;;19.10;;
12088;SDS011;6107;49.078;8.578;2024-03-08T03:04:04;42.88;;;18.25;;
12088;SDS011;6107;49.078;8.578;2024-03-08T03:06:30;52.92;;;20.42;;
12088;SDS011;6107;49.078;8.578;2024-03-08T03:08:56;60.20;;;20.02;;
12088;SDS011;6107;49.078;8.578;2024-03-08T03:11:22;60.60;;;18.80;;
12088;SDS011;6107;49.078;8.578;2024-03-08T03:13:48;44.05;;;18.40;;
12088;SDS011;6107;49.078;8.578;2024-03-08T03:16:20;51.75;;;19.15;;
12088;SDS011;6107;49.078;8.578;2024-03-08T03:18:46;47.70;;;17.65;;
12088;SDS011;6107;49.078;8.578;2024-03-08T03:21:12;46.97;;;17.55;;
12088;SDS011;6107;49.078;8.578;2024-03-08T03:23:39;51.05;;;19.23;;
12088;SDS011;6107;49.078;8.578;2024-03-08T03:26:08;43.20;;;17.13;;
12088;SDS011;6107;49.078;8.578;2024-03-08T03:28:37;44.78;;;18.45;;
12088;SDS011;6107;49.078;8.578;2024-03-08T03:31:05;49.08;;;18.35;;
12088;SDS011;6107;49.078;8.578;2024-03-08T03:33:39;45.85;;;18.58;;
12088;SDS011;6107;49.078;8.578;2024-03-08T03:36:05;48.90;;;16.92;;
12088;SDS011;6107;49.078;8.578;2024-03-08T03:38:30;42.88;;;16.17;;
12088;SDS011;6107;49.078;8.578;2024-03-08T03:40:56;39.83;;;16.00;;
12088;SDS011;6107;49.078;8.578;2024-03-08T03:43:29;51.42;;;18.95;;
12088;SDS011;6107;49.078;8.578;2024-03-08T03:45:54;45.25;;;16.83;;
12088;SDS011;6107;49.078;8.578;2024-03-08T03:48:20;53.80;;;18.73;;
12088;SDS011;6107;49.078;8.578;2024-03-08T03:50:46;45.25;;;18.33;;
12088;SDS011;6107;49.078;8.578;2024-03-08T03:53:12;44.78;;;16.45;;
12088;SDS011;6107;49.078;8.578;2024-03-08T03:55:38;45.08;;;16.90;;
12088;SDS011;6107;49.078;8.578;2024-03-08T03:58:04;43.13;;;16.90;;
12088;SDS011;6107;49.078;8.578;2024-03-08T04:00:29;42.72;;;17.08;;
12088;SDS011;6107;49.078;8.578;2024-03-08T04:02:55;39.33;;;17.33;;
12088;SDS011;6107;49.078;8.578;2024-03-08T04:05:24;44.63;;;17.33;;
12088;SDS011;6107;49.078;8.578;2024-03-08T04:07:50;55.30;;;20.67;;
12088;SDS011;6107;49.078;8.578;2024-03-08T04:10:15;47.28;;;18.95;;
12088;SDS011;6107;49.078;8.578;2024-03-08T04:12:41;37.70;;;16.48;;
12088;SDS011;6107;49.078;8.578;2024-03-08T04:15:07;50.85;;;18.23;;
12088;SDS011;6107;49.078;8.578;2024-03-08T04:17:33;46.10;;;18.60;;
12088;SDS011;6107;49.078;8.578;2024-03-08T04:20:02;50.83;;;20.00;;
12088;SDS011;6107;49.078;8.578;2024-03-08T04:22:34;46.67;;;18.90;;
12088;SDS011;6107;49.078;8.578;2024-03-08T04:25:01;59.15;;;21.73;;
12088;SDS011;6107;49.078;8.578;2024-03-08T04:27:27;47.42;;;18.25;;
12088;SDS011;6107;49.078;8.578;2024-03-08T04:29:52;51.15;;;19.13;;
12088;SDS011;6107;49.078;8.578;2024-03-08T04:32:18;44.00;;;16.92;;
12088;SDS011;6107;49.078;8.578;2024-03-08T04:34:43;46.90;;;18.63;;
12088;SDS011;6107;49.078;8.578;2024-03-08T04:37:09;40.92;;;17.30;;
12088;SDS011;6107;49.078;8.578;2024-03-08T04:39:38;42.90;;;16.92;;
12088;SDS011;6107;49.078;8.578;2024-03-08T04:42:04;38.50;;;17.10;;
12088;SDS011;6107;49.078;8.578;2024-03-08T04:44:34;40.95;;;16.85;;
12088;SDS011;6107;49.078;8.578;2024-03-08T04:47:02;37.60;;;16.20;;
12088;SDS011;6107;49.078;8.578;2024-03-08T04:49:29;40.90;;;17.08;;
12088;SDS011;6107;49.078;8.578;2024-03-08T04:51:54;46.03;;;19.48;;
12088;SDS011;6107;49.078;8.578;2024-03-08T04:54:21;45.20;;;17.45;;
12088;SDS011;6107;49.078;8.578;2024-03-08T04:56:46;44.33;;;16.75;;
12088;SDS011;6107;49.078;8.578;2024-03-08T04:59:12;41.28;;;16.25;;
12088;SDS011;6107;49.078;8.578;2024-03-08T05:01:38;35.47;;;15.70;;
12088;SDS011;6107;49.078;8.578;2024-03-08T05:04:04;45.67;;;16.85;;
12088;SDS011;6107;49.078;8.578;2024-03-08T05:06:30;40.95;;;18.27;;
12088;SDS011;6107;49.078;8.578;2024-03-08T05:08:56;42.65;;;17.92;;
12088;SDS011;6107;49.078;8.578;2024-03-08T05:11:22;43.97;;;16.58;;
12088;SDS011;6107;49.078;8.578;2024-03-08T05:13:47;38.38;;;16.70;;
12088;SDS011;6107;49.078;8.578;2024-03-08T05:16:13;40.67;;;16.27;;
12088;SDS011;6107;49.078;8.578;2024-03-08T05:18:40;41.17;;;16.80;;
12088;SDS011;6107;49.078;8.578;2024-03-08T05:21:07;41.30;;;15.90;;
12088;SDS011;6107;49.078;8.578;2024-03-08T05:23:34;38.05;;;16.33;;
12088;SDS011;6107;49.078;8.578;2024-03-08T05:25:59;45.03;;;17.20;;
12088;SDS011;6107;49.078;8.578;2024-03-08T05:28:26;42.17;;;17.83;;
12088;SDS011;6107;49.078;8.578;2024-03-08T05:30:51;42.03;;;16.30;;
12088;SDS011;6107;49.078;8.578;2024-03-08T05:33:17;35.53;;;15.25;;
12088;SDS011;6107;49.078;8.578;2024-03-08T05:35:44;36.50;;;16.50;;
12088;SDS011;6107;49.078;8.578;2024-03-08T05:38:10;36.72;;;15.57;;
12088;SDS011;6107;49.078;8.578;2024-03-08T05:40:37;38.15;;;16.15;;
12088;SDS011;6107;49.078;8.578;2024-03-08T05:43:03;38.20;;;16.58;;
12088;SDS011;6107;49.078;8.578;2024-03-08T05:45:30;37.25;;;15.63;;
12088;SDS011;6107;49.078;8.578;2024-03-08T05:47:56;41.00;;;15.25;;
12088;SDS011;6107;49.078;8.578;2024-03-08T05:50:21;80.50;;;29.15;;
12088;SDS011;6107;49.078;8.578;2024-03-08T05:52:47;42.08;;;17.38;;
12088;SDS011;6107;49.078;8.578;2024-03-08T05:55:13;62.50;;;25.23;;
12088;SDS011;6107;49.078;8.578;2024-03-08T05:57:39;101.68;;;42.72;;
12088;SDS011;6107;49.078;8.578;2024-03-08T06:00:07;42.92;;;17.40;;
12088;SDS011;6107;49.078;8.578;2024-03-08T06:02:33;36.95;;;17.05;;
12088;SDS011;6107;49.078;8.578;2024-03-08T06:04:59;43.63;;;19.83;;
12088;SDS011;6107;49.078;8.578;2024-03-08T06:07:27;40.15;;;18.17;;
12088;SDS011;6107;49.078;8.578;2024-03-08T06:09:52;43.83;;;18.02;;
12088;SDS011;6107;49.078;8.578;2024-03-08T06:12:18;43.67;;;16.83;;
12088;SDS011;6107;49.078;8.578;2024-03-08T06:14:44;44.03;;;16.88;;
12088;SDS011;6107;49.078;8.578;2024-03-08T06:17:10;36.40;;;15.95;;
12088;SDS011;6107;49.078;8.578;2024-03-08T06:19:36;38.33;;;16.40;;
12088;SDS011;6107;49.078;8.578;2024-03-08T06:22:02;31.85;;;16.00;;
12088;SDS011;6107;49.078;8.578;2024-03-08T06:24:31;40.65;;;16.65;;
12088;SDS011;6107;49.078;8.578;2024-03-08T06:26:57;39.45;;;16.65;;
12088;SDS011;6107;49.078;8.578;2024-03-08T06:29:22;38.67;;;16.98;;
12088;SDS011;6107;49.078;8.578;2024-03-08T06:31:48;39.35;;;17.73;;
12088;SDS011;6107;49.078;8.578;2024-03-08T06:34:14;35.53;;;16.40;;
12088;SDS011;6107;49.078;8.578;2024-03-08T06:36:40;36.15;;;16.83;;
12088;SDS011;6107;49.078;8.578;2024-03-08T06:39:06;37.47;;;17.25;;
12088;SDS011;6107;49.078;8.578;2024-03-08T06:41:37;38.95;;;16.42;;
12088;SDS011;6107;49.078;8.578;2024-03-08T06:44:03;40.65;;;16.88;;
12088;SDS011;6107;49.078;8.578;2024-03-08T06:46:29;39.67;;;16.70;;
12088;SDS011;6107;49.078;8.578;2024-03-08T06:48:54;40.08;;;17.30;;
12088;SDS011;6107;49.078;8.578;2024-03-08T06:51:20;44.10;;;18.65;;
12088;SDS011;6107;49.078;8.578;2024-03-08T06:53:46;59.22;;;24.65;;
12088;SDS011;6107;49.078;8.578;2024-03-08T06:56:12;62.17;;;25.85;;
12088;SDS011;6107;49.078;8.578;2024-03-08T06:58:38;49.00;;;20.17;;
12088;SDS011;6107;49.078;8.578;2024-03-08T07:01:03;47.47;;;18.88;;
12088;SDS011;6107;49.078;8.578;2024-03-08T07:03:32;44.78;;;18.92;;
12088;SDS011;6107;49.078;8.578;2024-03-08T07:05:58;49.00;;;18.33;;
12088;SDS011;6107;49.078;8.578;2024-03-08T07:08:24;45.03;;;17.20;;
12088;SDS011;6107;49.078;8.578;2024-03-08T07:10:51;41.78;;;17.45;;
12088;SDS011;6107;49.078;8.578;2024-03-08T07:13:17;43.15;;;18.50;;
12088;SDS011;6107;49.078;8.578;2024-03-08T07:15:43;37.88;;;16.25;;
12088;SDS011;6107;49.078;8.578;2024-03-08T07:18:10;39.50;;;17.00;;
12088;SDS011;6107;49.078;8.578;2024-03-08T07:20:39;41.15;;;16.95;;
12088;SDS011;6107;49.078;8.578;2024-03-08T07:23:05;38.92;;;16.30;;
12088;SDS011;6107;49.078;8.578;2024-03-08T07:25:31;39.60;;;17.23;;
12088;SDS011;6107;49.078;8.578;2024-03-08T07:27:56;35.58;;;16.02;;
12088;SDS011;6107;49.078;8.578;2024-03-08T07:30:23;37.60;;;17.85;;
12088;SDS011;6107;49.078;8.578;2024-03-08T07:33:08;37.80;;;16.05;;
12088;SDS011;6107;49.078;8.578;2024-03-08T07:35:37;35.33;;;16.08;;
12088;SDS011;6107;49.078;8.578;2024-03-08T07:38:04;39.33;;;17.15;;
12088;SDS011;6107;49.078;8.578;2024-03-08T07:40:30;33.10;;;14.95;;
12088;SDS011;6107;49.078;8.578;2024-03-08T07:42:57;34.25;;;15.85;;
12088;SDS011;6107;49.078;8.578;2024-03-08T07:45:23;42.80;;;17.67;;
12088;SDS011;6107;49.078;8.578;2024-03-08T07:47:49;37.45;;;15.73;;
12088;SDS011;6107;49.078;8.578;2024-03-08T07:50:15;33.17;;;16.25;;
12088;SDS011;6107;49.078;8.578;2024-03-08T07:52:41;48.75;;;17.58;;
12088;SDS011;6107;49.078;8.578;2024-03-08T07:55:07;37.35;;;17.60;;
12088;SDS011;6107;49.078;8.578;2024-03-08T07:57:33;34.63;;;16.15;;
12088;SDS011;6107;49.078;8.578;2024-03-08T07:59:59;26.65;;;12.48;;
12088;SDS011;6107;49.078;8.578;2024-03-08T08:02:25;37.80;;;17.00;;
12088;SDS011;6107;49.078;8.578;2024-03-08T08:04:50;32.78;;;16.15;;
12088;SDS011;6107;49.078;8.578;2024-03-08T08:07:16;32.97;;;14.77;;
12088;SDS011;6107;49.078;8.578;2024-03-08T08:09:41;28.95;;;14.00;;
12088;SDS011;6107;49.078;8.578;2024-03-08T08:12:11;33.40;;;14.35;;
12088;SDS011;6107;49.078;8.578;2024-03-08T08:14:37;29.75;;;13.90;;
12088;SDS011;6107;49.078;8.578;2024-03-08T08:17:04;36.55;;;14.77;;
12088;SDS011;6107;49.078;8.578;2024-03-08T08:19:30;36.50;;;16.45;;
12088;SDS011;6107;49.078;8.578;2024-03-08T08:21:56;32.30;;;14.68;;
12088;SDS011;6107;49.078;8.578;2024-03-08T08:24:23;38.72;;;17.08;;
12088;SDS011;6107;49.078;8.578;2024-03-08T08:26:48;33.78;;;16.42;;
12088;SDS011;6107;49.078;8.578;2024-03-08T08:29:14;37.38;;;16.25;;
12088;SDS011;6107;49.078;8.578;2024-03-08T08:31:40;35.63;;;15.32;;
12088;SDS011;6107;49.078;8.578;2024-03-08T08:34:05;37.40;;;16.10;;
12088;SDS011;6107;49.078;8.578;2024-03-08T08:36:32;39.22;;;17.13;;
12088;SDS011;6107;49.078;8.578;2024-03-08T08:38:58;37.15;;;16.27;;
12088;SDS011;6107;49.078;8.578;2024-03-08T08:41:24;36.95;;;16.30;;
12088;SDS011;6107;49.078;8.578;2024-03-08T08:43:50;35.92;;;16.42;;
12088;SDS011;6107;49.078;8.578;2024-03-08T08:46:19;53.90;;;15.40;;
12088;SDS011;6107;49.078;8.578;2024-03-08T08:48:46;33.53;;;15.68;;
12088;SDS011;6107;49.078;8.578;2024-03-08T08:51:12;38.42;;;15.35;;
12088;SDS011;6107;49.078;8.578;2024-03-08T08:53:39;36.40;;;15.13;;
12088;SDS011;6107;49.078;8.578;2024-03-08T08:56:10;33.80;;;15.55;;
12088;SDS011;6107;49.078;8.578;2024-03-08T08:58:38;37.03;;;16.05;;
12088;SDS011;6107;49.078;8.578;2024-03-08T09:01:05;39.75;;;18.10;;
12088;SDS011;6107;49.078;8.578;2024-03-08T09:03:32;29.90;;;13.45;;
12088;SDS011;6107;49.078;8.578;2024-03-08T09:05:59;32.70;;;16.23;;
12088;SDS011;6107;49.078;8.578;2024-03-08T09:08:25;37.22;;;18.05;;
12088;SDS011;6107;49.078;8.578;2024-03-08T09:10:51;34.50;;;16.13;;
12088;SDS011;6107;49.078;8.578;2024-03-08T09:13:16;39.38;;;16.67;;
12088;SDS011;6107;49.078;8.578;2024-03-08T09:15:43;36.53;;;16.02;;
12088;SDS011;6107;49.078;8.578;2024-03-08T09:18:09;34.95;;;17.10;;
12088;SDS011;6107;49.078;8.578;2024-03-08T09:20:35;37.28;;;17.10;;
12088;SDS011;6107;49.078;8.578;2024-03-08T09:23:01;37.92;;;16.90;;
12088;SDS011;6107;49.078;8.578;2024-03-08T09:25:28;35.90;;;16.02;;
12088;SDS011;6107;49.078;8.578;2024-03-08T09:27:54;34.95;;;15.38;;
12088;SDS011;6107;49.078;8.578;2024-03-08T09:30:20;35.55;;;14.95;;
12088;SDS011;6107;49.078;8.578;2024-03-08T09:32:46;40.75;;;16.17;;
12088;SDS011;6107;49.078;8.578;2024-03-08T09:35:12;40.53;;;17.15;;
12088;SDS011;6107;49.078;8.578;2024-03-08T09:37:38;32.72;;;14.90;;
12088;SDS011;6107;49.078;8.578;2024-03-08T09:40:04;35.63;;;15.43;;
12088;SDS011;6107;49.078;8.578;2024-03-08T09:42:34;37.33;;;16.15;;
12088;SDS011;6107;49.078;8.578;2024-03-08T09:45:04;38.97;;;16.38;;
12088;SDS011;6107;49.078;8.578;2024-03-08T09:47:35;35.40;;;16.75;;
12088;SDS011;6107;49.078;8.578;2024-03-08T09:50:05;39.53;;;18.25;;
12088;SDS011;6107;49.078;8.578;2024-03-08T09:52:34;34.33;;;16.25;;
12088;SDS011;6107;49.078;8.578;2024-03-08T09:55:08;36.10;;;15.82;;
12088;SDS011;6107;49.078;8.578;2024-03-08T09:57:36;49.60;;;17.63;;
12088;SDS011;6107;49.078;8.578;2024-03-08T10:00:03;34.53;;;15.90;;
12088;SDS011;6107;49.078;8.578;2024-03-08T10:02:44;38.35;;;16.27;;
12088;SDS011;6107;49.078;8.578;2024-03-08T10:05:11;32.90;;;15.65;;
12088;SDS011;6107;49.078;8.578;2024-03-08T10:07:37;38.90;;;16.38;;
12088;SDS011;6107;49.078;8.578;2024-03-08T10:10:03;34.88;;;15.88;;
12088;SDS011;6107;49.078;8.578;2024-03-08T10:12:29;37.50;;;15.23;;
12088;SDS011;6107;49.078;8.578;2024-03-08T10:14:56;33.35;;;16.30;;
12088;SDS011;6107;49.078;8.578;2024-03-08T10:17:23;37.22;;;16.38;;
12088;SDS011;6107;49.078;8.578;2024-03-08T10:19:50;34.75;;;16.58;;
12088;SDS011;6107;49.078;8.578;2024-03-08T10:22:19;34.42;;;16.40;;
12088;SDS011;6107;49.078;8.578;2024-03-08T10:24:47;34.33;;;16.50;;
12088;SDS011;6107;49.078;8.578;2024-03-08T10:27:12;31.58;;;15.57;;
12088;SDS011;6107;49.078;8.578;2024-03-08T10:29:38;33.50;;;15.65;;
12088;SDS011;6107;49.078;8.578;2024-03-08T10:32:08;35.65;;;15.65;;
12088;SDS011;6107;49.078;8.578;2024-03-08T10:34:34;33.80;;;15.32;;
12088;SDS011;6107;49.078;8.578;2024-03-08T10:37:10;35.05;;;16.13;;
12088;SDS011;6107;49.078;8.578;2024-03-08T10:39:42;36.00;;;15.75;;
12088;SDS011;6107;49.078;8.578;2024-03-08T10:42:16;31.65;;;14.73;;
12088;SDS011;6107;49.078;8.578;2024-03-08T10:44:53;30.73;;;14.52;;
12088;SDS011;6107;49.078;8.578;2024-03-08T10:47:39;31.88;;;15.73;;
12088;SDS011;6107;49.078;8.578;2024-03-08T10:50:18;29.00;;;13.82;;
12088;SDS011;6107;49.078;8.578;2024-03-08T10:52:51;29.73;;;13.98;;
12088;SDS011;6107;49.078;8.578;2024-03-08T10:55:17;28.50;;;14.00;;
12088;SDS011;6107;49.078;8.578;2024-03-08T10:57:45;32.67;;;13.52;;
12088;SDS011;6107;49.078;8.578;2024-03-08T11:00:12;30.38;;;14.13;;
12088;SDS011;6107;49.078;8.578;2024-03-08T11:02:39;32.42;;;15.95;;
12088;SDS011;6107;49.078;8.578;2024-03-08T11:08:19;24.67;;;10.05;;
12088;SDS011;6107;49.078;8.578;2024-03-08T11:10:52;33.72;;;15.32;;
12088;SDS011;6107;49.078;8.578;2024-03-08T11:13:41;30.25;;;14.88;;
12088;SDS011;6107;49.078;8.578;2024-03-08T11:16:11;31.30;;;13.90;;
12088;SDS011;6107;49.078;8.578;2024-03-08T11:19:01;27.88;;;13.45;;
12088;SDS011;6107;49.078;8.578;2024-03-08T11:21:30;31.20;;;13.52;;
12088;SDS011;6107;49.078;8.578;2024-03-08T11:24:01;32.97;;;13.88;;
12088;SDS011;6107;49.078;8.578;2024-03-08T11:26:33;30.77;;;13.85;;
12088;SDS011;6107;49.078;8.578;2024-03-08T11:32:11;30.35;;;15.48;;
12088;SDS011;6107;49.078;8.578;2024-03-08T11:34:41;34.40;;;14.30;;
12088;SDS011;6107;49.078;8.578;2024-03-08T11:37:12;31.45;;;13.55;;
12088;SDS011;6107;49.078;8.578;2024-03-08T11:42:17;26.63;;;14.00;;
12088;SDS011;6107;49.078;8.578;2024-03-08T11:44:45;25.60;;;13.75;;
12088;SDS011;6107;49.078;8.578;2024-03-08T11:47:11;29.35;;;13.45;;
12088;SDS011;6107;49.078;8.578;2024-03-08T11:49:40;26.70;;;13.73;;
12088;SDS011;6107;49.078;8.578;2024-03-08T11:52:16;37.42;;;14.63;;
12088;SDS011;6107;49.078;8.578;2024-03-08T11:54:43;30.08;;;14.25;;
12088;SDS011;6107;49.078;8.578;2024-03-08T11:57:16;30.08;;;14.65;;
12088;SDS011;6107;49.078;8.578;2024-03-08T11:59:49;26.42;;;13.73;;
12088;SDS011;6107;49.078;8.578;2024-03-08T12:02:16;30.17;;;14.73;;
12088;SDS011;6107;49.078;8.578;2024-03-08T12:04:43;29.27;;;13.35;;
12088;SDS011;6107;49.078;8.578;2024-03-08T12:07:11;26.55;;;14.02;;
12088;SDS011;6107;49.078;8.578;2024-03-08T12:09:38;28.50;;;14.52;;
12088;SDS011;6107;49.078;8.578;2024-03-08T12:12:04;27.05;;;14.45;;
12088;SDS011;6107;49.078;8.578;2024-03-08T12:14:35;28.02;;;14.45;;
12088;SDS011;6107;49.078;8.578;2024-03-08T12:17:01;27.63;;;13.85;;
12088;SDS011;6107;49.078;8.578;2024-03-08T12:19:28;29.00;;;14.38;;
12088;SDS011;6107;49.078;8.578;2024-03-08T12:21:56;27.90;;;14.40;;
12088;SDS011;6107;49.078;8.578;2024-03-08T12:24:23;25.80;;;13.40;;
12088;SDS011;6107;49.078;8.578;2024-03-08T12:26:48;28.73;;;14.27;;
12088;SDS011;6107;49.078;8.578;2024-03-08T12:31:47;25.83;;;13.53;;
12088;SDS011;6107;49.078;8.578;2024-03-08T12:34:18;32.60;;;14.82;;
12088;SDS011;6107;49.078;8.578;2024-03-08T12:36:47;31.75;;;15.07;;
12088;SDS011;6107;49.078;8.578;2024-03-08T12:39:32;32.40;;;14.23;;
12088;SDS011;6107;49.078;8.578;2024-03-08T12:41:58;27.73;;;13.90;;
12088;SDS011;6107;49.078;8.578;2024-03-08T12:44:24;28.80;;;14.23;;
12088;SDS011;6107;49.078;8.578;2024-03-08T12:46:51;27.33;;;13.45;;
12088;SDS011;6107;49.078;8.578;2024-03-08T12:49:18;27.65;;;14.43;;
12088;SDS011;6107;49.078;8.578;2024-03-08T12:51:47;31.08;;;14.25;;
12088;SDS011;6107;49.078;8.578;2024-03-08T12:54:13;30.40;;;14.35;;
12088;SDS011;6107;49.078;8.578;2024-03-08T12:56:39;29.13;;;14.40;;
12088;SDS011;6107;49.078;8.578;2024-03-08T12:59:05;28.10;;;14.05;;
12088;SDS011;6107;49.078;8.578;2024-03-08T13:01:38;31.27;;;15.45;;
12088;SDS011;6107;49.078;8.578;2024-03-08T13:04:04;30.77;;;14.43;;
12088;SDS011;6107;49.078;8.578;2024-03-08T13:06:31;23.90;;;13.50;;
12088;SDS011;6107;49.078;8.578;2024-03-08T13:08:57;27.38;;;14.55;;
12088;SDS011;6107;49.078;8.578;2024-03-08T13:11:24;30.50;;;15.27;;
12088;SDS011;6107;49.078;8.578;2024-03-08T13:13:53;27.73;;;15.07;;
12088;SDS011;6107;49.078;8.578;2024-03-08T13:16:19;29.98;;;14.80;;
12088;SDS011;6107;49.078;8.578;2024-03-08T13:18:45;29.73;;;14.93;;
12088;SDS011;6107;49.078;8.578;2024-03-08T13:21:13;27.75;;;14.32;;
12088;SDS011;6107;49.078;8.578;2024-03-08T13:23:40;28.65;;;14.55;;
12088;SDS011;6107;49.078;8.578;2024-03-08T13:26:10;28.75;;;14.73;;
12088;SDS011;6107;49.078;8.578;2024-03-08T13:28:43;31.33;;;15.35;;
12088;SDS011;6107;49.078;8.578;2024-03-08T13:31:09;27.15;;;14.50;;
12088;SDS011;6107;49.078;8.578;2024-03-08T13:33:36;32.75;;;14.93;;
12088;SDS011;6107;49.078;8.578;2024-03-08T13:36:04;31.15;;;15.60;;
12088;SDS011;6107;49.078;8.578;2024-03-08T13:38:46;31.02;;;14.90;;
12088;SDS011;6107;49.078;8.578;2024-03-08T13:41:14;31.77;;;16.52;;
12088;SDS011;6107;49.078;8.578;2024-03-08T13:43:42;31.35;;;15.93;;
12088;SDS011;6107;49.078;8.578;2024-03-08T13:46:08;31.80;;;15.43;;
12088;SDS011;6107;49.078;8.578;2024-03-08T13:48:35;31.70;;;15.30;;
12088;SDS011;6107;49.078;8.578;2024-03-08T13:51:02;32.10;;;15.23;;
12088;SDS011;6107;49.078;8.578;2024-03-08T13:53:29;31.45;;;15.60;;
12088;SDS011;6107;49.078;8.578;2024-03-08T13:55:55;31.08;;;15.60;;
12088;SDS011;6107;49.078;8.578;2024-03-08T13:58:21;34.13;;;16.10;;
12088;SDS011;6107;49.078;8.578;2024-03-08T14:00:47;30.33;;;16.33;;
12088;SDS011;6107;49.078;8.578;2024-03-08T14:03:13;31.90;;;15.20;;
12088;SDS011;6107;49.078;8.578;2024-03-08T14:05:41;32.20;;;15.52;;
12088;SDS011;6107;49.078;8.578;2024-03-08T14:08:08;29.45;;;14.82;;
12088;SDS011;6107;49.078;8.578;2024-03-08T14:10:34;34.72;;;15.90;;
12088;SDS011;6107;49.078;8.578;2024-03-08T14:13:02;29.02;;;14.48;;
12088;SDS011;6107;49.078;8.578;2024-03-08T14:15:29;30.33;;;15.07;;
12088;SDS011;6107;49.078;8.578;2024-03-08T14:17:59;26.30;;;14.80;;
12088;SDS011;6107;49.078;8.578;2024-03-08T14:20:26;35.78;;;17.73;;
12088;SDS011;6107;49.078;8.578;2024-03-08T14:22:55;29.50;;;15.00;;
12088;SDS011;6107;49.078;8.578;2024-03-08T14:25:21;30.95;;;15.40;;
12088;SDS011;6107;49.078;8.578;2024-03-08T14:27:48;30.60;;;15.65;;
12088;SDS011;6107;49.078;8.578;2024-03-08T14:30:16;32.13;;;15.45;;
12088;SDS011;6107;49.078;8.578;2024-03-08T14:32:57;29.17;;;15.60;;
12088;SDS011;6107;49.078;8.578;2024-03-08T14:35:37;29.30;;;15.02;;
12088;SDS011;6107;49.078;8.578;2024-03-08T14:38:03;35.95;;;15.65;;
12088;SDS011;6107;49.078;8.578;2024-03-08T14:40:29;30.80;;;14.98;;
12088;SDS011;6107;49.078;8.578;2024-03-08T14:42:55;30.15;;;15.75;;
12088;SDS011;6107;49.078;8.578;2024-03-08T14:45:21;35.20;;;17.02;;
12088;SDS011;6107;49.078;8.578;2024-03-08T14:47:49;30.17;;;16.20;;